False Pass, AK

2:14 AM AKDT on October 25, 2014 (GMT -0800)
Dutch Harbor | Change Station
CLOSE
Current Station
Airport
Location: Dutch Harbor,
Elevation: 13 ft
Nearby Weather Stations

Elev 13 ft 53.90 °N, 166.54 °W | Updated 18 minutes ago

Overcast
Overcast
45 °F
Feels Like 45 °F
N
0
Wind Variable Wind from North

Today
High -- | Low -- °F
--% Chance of Precip.
Yesterday
High -- | Low -- °F
Precip. -- in
9:43 AM 7:31 PM
New Moon, 2% visible
Pressure 30.01 in
Visibility 10.0 miles
Clouds Overcast 2100 ft
Dew Point 40 °F
Humidity 82%
Rainfall 0.00 in
Snow Depth Not available.
UV 0 out of 12
Pollen Not available.
Air Quality Not available.
Flu Activity Local Activity
METAR PADU 250956Z AUTO 00000KT 10SM OVC021 07/04 A2999 RMK AO2 SLP162 T00720044

More Conditions Fewer Conditions

Pressure 30.01 in
Visibility 10.0 miles
Clouds Overcast 2100 ft
Dew Point 40 °F
Humidity 82%
Rainfall 0.00 in
Snow Depth Not available.
UV 0 out of 12
Pollen Not available.
Air Quality Not available.
Flu Activity Local Activity
METAR PADU 250956Z AUTO 00000KT 10SM OVC021 07/04 A2999 RMK AO2 SLP162 T00720044

More Conditions Fewer Conditions

10-Day Weather Forecast

Almanac

Astronomy

Oct. 25, 2014 Rise Set
Actual Time 9:43 AM AKDT 7:31 PM AKDT
Civil Twilight 9:05 AM AKDT 8:08 PM AKDT
Nautical Twilight 8:23 AM AKDT 8:50 PM AKDT
Astronomical Twilight 7:41 AM AKDT 9:32 PM AKDT
Moon 11:48 AM AKDT 8:47 PM AKDT
Length of Visible Light 11h 02m
Length of Day
9h 47m
Tomorrow will be 4m 12s shorter.
New Moon, 2% of the Moon is Illuminated
Today
New Moon
Oct 30
First Quarter
Nov 6
Full
Nov 14
Last Quarter
Nov 22
New

Today's Extremes

State Highs State Lows

Community

WunderPhotos

Upload Photos

1,764,796 photos uploaded!

Nearby

Snow Depth

Station Depth Elevation
Port Graham 0 in 300 ft
Mcneil Canyon 1 in 1320 ft
MF Bradley River 0 in 2300 ft
Cooper Lake 1 in 1200 ft
Grouse Creek Divide 1 in 700 ft

Earthquake Activity

City Distance Mag. Time & Date
No recent earthquake activity has been reported nearby.
Minimum magnitude displayed is 2.5.

Coastal Water Temperatures

Place Temperature
No Stations Reporting

Nearby Weather Stations